Champaign, Illinois
Current Conditions -  °F | °C
As of 5:53 PM on Wednesday 22 Oct 2014 (Local Time) from KCMI Reporting Station
Clear Clear  
Wind Chill: 54°   Ceiling: Unl
Heat Index: 54°   Visibility: 10mi
Dew Point: 37°   Wind: 5mph
Humidity: 53%   Direction: 80°E
Pressure: 30.25"   Gusts: NA
Location:  40.11°N, 88.24°W
Report Text: KCMI 222253Z 08004KT 10SM CLR 12/03 A3025 RMK AO2 SLP248 T01220028 $
Loading
Personal Weather Stations






























Interactive Weather Map
Tropical Storm Tracking
New forecast layout! Learn more

10-Day Weather Forecast

Advertisements
Track Severe Weather on mobile